Connor, Texas
Current Conditions -  °F | °C
As of 4:53 PM on Tuesday 25 Nov 2014 (Local Time) from KUTS Reporting Station
Clear Clear  
Wind Chill: 17°   Ceiling: Unl
Heat Index: 17°   Visibility: 10mi
Dew Point: -3°   Wind: 6mph
Humidity: 25%   Direction: 260°W
Pressure: 30.21"   Gusts: NA
Location:  30.9578°N, 95.8924°W
Report Text: KUTS 252253Z AUTO 26005KT 10SM CLR 17/M03 A3021 RMK AO2 SLP228 T01671033
Loading
Personal Weather Stations






























Interactive Weather Map New forecast layout! Learn more

10-Day Weather Forecast

Advertisements
Track Severe Weather on mobile